Terminal Aerodrome Forecast
Issued by NWS

Home | Current Version | Previous Version | Text Only | Print | Product List | Glossary On
Versions: 1 2 3 4 5 6 7 8 9 10 11 12
720
FTUS42 TJSJ 162322
TAFJPS
TAF
TJPS 162322Z 1700/1724 07005KT P6SM FEW030 FEW090
     FM170300 05002KT P6SM FEW030
     FM171500 13012KT P6SM SCT030 SCT060
      AMD NOT SKED TIL 170300=

USA.gov is the U.S. government's official web portal to all federal, state and local government web resources and services.